sensor_id;sensor_type;location;lat;lon;timestamp;P1;durP1;ratioP1;P2;durP2;ratioP2
20649;SDS011;10484;48.736;9.332;2022-12-18T00:01:17;46.17;;;18.65;;
20649;SDS011;10484;48.736;9.332;2022-12-18T00:03:44;44.17;;;20.55;;
20649;SDS011;10484;48.736;9.332;2022-12-18T00:06:11;44.88;;;18.13;;
20649;SDS011;10484;48.736;9.332;2022-12-18T00:08:38;51.78;;;21.02;;
20649;SDS011;10484;48.736;9.332;2022-12-18T00:11:05;56.20;;;22.38;;
20649;SDS011;10484;48.736;9.332;2022-12-18T00:13:32;45.05;;;19.23;;
20649;SDS011;10484;48.736;9.332;2022-12-18T00:16:01;40.07;;;20.27;;
20649;SDS011;10484;48.736;9.332;2022-12-18T00:18:28;52.70;;;18.17;;
20649;SDS011;10484;48.736;9.332;2022-12-18T00:20:53;54.60;;;18.23;;
20649;SDS011;10484;48.736;9.332;2022-12-18T00:23:23;47.65;;;22.38;;
20649;SDS011;10484;48.736;9.332;2022-12-18T00:25:48;52.53;;;18.97;;
20649;SDS011;10484;48.736;9.332;2022-12-18T00:28:14;49.93;;;20.03;;
20649;SDS011;10484;48.736;9.332;2022-12-18T00:30:40;51.67;;;22.37;;
20649;SDS011;10484;48.736;9.332;2022-12-18T00:33:05;49.90;;;22.43;;
20649;SDS011;10484;48.736;9.332;2022-12-18T00:35:31;47.20;;;21.30;;
20649;SDS011;10484;48.736;9.332;2022-12-18T00:37:57;45.37;;;17.63;;
20649;SDS011;10484;48.736;9.332;2022-12-18T00:40:22;59.17;;;22.33;;
20649;SDS011;10484;48.736;9.332;2022-12-18T00:42:48;56.07;;;20.37;;
20649;SDS011;10484;48.736;9.332;2022-12-18T00:45:23;43.80;;;19.10;;
20649;SDS011;10484;48.736;9.332;2022-12-18T00:47:50;41.70;;;20.65;;
20649;SDS011;10484;48.736;9.332;2022-12-18T00:50:16;36.83;;;19.80;;
20649;SDS011;10484;48.736;9.332;2022-12-18T00:52:42;45.83;;;19.73;;
20649;SDS011;10484;48.736;9.332;2022-12-18T00:55:08;56.00;;;20.57;;
20649;SDS011;10484;48.736;9.332;2022-12-18T00:57:34;52.58;;;20.83;;
20649;SDS011;10484;48.736;9.332;2022-12-18T01:00:00;38.83;;;18.60;;
20649;SDS011;10484;48.736;9.332;2022-12-18T01:02:26;58.33;;;24.35;;
20649;SDS011;10484;48.736;9.332;2022-12-18T01:04:51;49.30;;;18.90;;
20649;SDS011;10484;48.736;9.332;2022-12-18T01:07:17;52.37;;;21.00;;
20649;SDS011;10484;48.736;9.332;2022-12-18T01:09:43;46.80;;;19.10;;
20649;SDS011;10484;48.736;9.332;2022-12-18T01:12:08;49.20;;;19.73;;
20649;SDS011;10484;48.736;9.332;2022-12-18T01:14:34;51.77;;;20.30;;
20649;SDS011;10484;48.736;9.332;2022-12-18T01:17:00;53.80;;;21.43;;
20649;SDS011;10484;48.736;9.332;2022-12-18T01:19:27;54.30;;;21.15;;
20649;SDS011;10484;48.736;9.332;2022-12-18T01:21:53;57.80;;;21.07;;
20649;SDS011;10484;48.736;9.332;2022-12-18T01:24:19;50.23;;;20.13;;
20649;SDS011;10484;48.736;9.332;2022-12-18T01:26:44;41.80;;;17.87;;
20649;SDS011;10484;48.736;9.332;2022-12-18T01:29:10;55.77;;;20.70;;
20649;SDS011;10484;48.736;9.332;2022-12-18T01:31:36;53.30;;;19.87;;
20649;SDS011;10484;48.736;9.332;2022-12-18T01:34:02;52.33;;;20.33;;
20649;SDS011;10484;48.736;9.332;2022-12-18T01:36:30;54.38;;;21.95;;
20649;SDS011;10484;48.736;9.332;2022-12-18T01:39:01;53.78;;;22.52;;
20649;SDS011;10484;48.736;9.332;2022-12-18T01:41:29;36.78;;;17.00;;
20649;SDS011;10484;48.736;9.332;2022-12-18T01:47:27;51.58;;;21.38;;
20649;SDS011;10484;48.736;9.332;2022-12-18T01:50:01;44.55;;;22.30;;
20649;SDS011;10484;48.736;9.332;2022-12-18T01:52:31;43.25;;;21.45;;
20649;SDS011;10484;48.736;9.332;2022-12-18T01:54:58;46.38;;;20.23;;
20649;SDS011;10484;48.736;9.332;2022-12-18T01:57:25;51.42;;;19.92;;
20649;SDS011;10484;48.736;9.332;2022-12-18T01:59:52;41.75;;;17.13;;
20649;SDS011;10484;48.736;9.332;2022-12-18T02:02:21;47.55;;;18.25;;
20649;SDS011;10484;48.736;9.332;2022-12-18T02:04:47;37.63;;;16.10;;
20649;SDS011;10484;48.736;9.332;2022-12-18T02:07:34;47.77;;;18.47;;
20649;SDS011;10484;48.736;9.332;2022-12-18T02:10:31;40.72;;;17.60;;
20649;SDS011;10484;48.736;9.332;2022-12-18T02:13:19;38.17;;;15.20;;
20649;SDS011;10484;48.736;9.332;2022-12-18T02:16:01;39.72;;;15.98;;
20649;SDS011;10484;48.736;9.332;2022-12-18T02:18:30;56.85;;;20.98;;
20649;SDS011;10484;48.736;9.332;2022-12-18T02:21:08;42.88;;;18.77;;
20649;SDS011;10484;48.736;9.332;2022-12-18T02:24:04;41.35;;;19.70;;
20649;SDS011;10484;48.736;9.332;2022-12-18T02:26:49;36.88;;;17.20;;
20649;SDS011;10484;48.736;9.332;2022-12-18T02:29:24;51.22;;;22.30;;
20649;SDS011;10484;48.736;9.332;2022-12-18T02:31:54;45.85;;;20.80;;
20649;SDS011;10484;48.736;9.332;2022-12-18T02:34:29;49.00;;;17.85;;
20649;SDS011;10484;48.736;9.332;2022-12-18T02:36:57;54.22;;;21.33;;
20649;SDS011;10484;48.736;9.332;2022-12-18T02:39:26;43.83;;;20.42;;
20649;SDS011;10484;48.736;9.332;2022-12-18T02:41:54;45.10;;;18.80;;
20649;SDS011;10484;48.736;9.332;2022-12-18T02:44:20;48.57;;;19.47;;
20649;SDS011;10484;48.736;9.332;2022-12-18T02:46:49;50.10;;;22.87;;
20649;SDS011;10484;48.736;9.332;2022-12-18T02:49:30;48.70;;;21.35;;
20649;SDS011;10484;48.736;9.332;2022-12-18T02:52:27;44.03;;;20.27;;
20649;SDS011;10484;48.736;9.332;2022-12-18T02:58:32;46.42;;;23.67;;
20649;SDS011;10484;48.736;9.332;2022-12-18T03:03:57;53.58;;;21.60;;
20649;SDS011;10484;48.736;9.332;2022-12-18T03:06:29;48.00;;;21.67;;
20649;SDS011;10484;48.736;9.332;2022-12-18T03:09:02;55.13;;;20.30;;
20649;SDS011;10484;48.736;9.332;2022-12-18T03:11:38;44.65;;;16.98;;
20649;SDS011;10484;48.736;9.332;2022-12-18T03:14:25;41.03;;;21.05;;
20649;SDS011;10484;48.736;9.332;2022-12-18T03:16:57;43.53;;;21.27;;
20649;SDS011;10484;48.736;9.332;2022-12-18T03:19:25;38.58;;;19.40;;
20649;SDS011;10484;48.736;9.332;2022-12-18T03:21:53;39.40;;;17.50;;
20649;SDS011;10484;48.736;9.332;2022-12-18T03:24:21;44.95;;;20.65;;
20649;SDS011;10484;48.736;9.332;2022-12-18T03:26:52;41.35;;;20.58;;
20649;SDS011;10484;48.736;9.332;2022-12-18T03:29:22;43.65;;;18.67;;
20649;SDS011;10484;48.736;9.332;2022-12-18T03:31:53;48.30;;;19.98;;
20649;SDS011;10484;48.736;9.332;2022-12-18T03:34:24;41.35;;;18.65;;
20649;SDS011;10484;48.736;9.332;2022-12-18T03:36:56;42.92;;;19.77;;
20649;SDS011;10484;48.736;9.332;2022-12-18T03:39:22;42.75;;;18.52;;
20649;SDS011;10484;48.736;9.332;2022-12-18T03:41:55;40.33;;;19.30;;
20649;SDS011;10484;48.736;9.332;2022-12-18T03:44:43;47.60;;;19.83;;
20649;SDS011;10484;48.736;9.332;2022-12-18T03:49:46;37.77;;;18.10;;
20649;SDS011;10484;48.736;9.332;2022-12-18T03:54:51;46.10;;;20.23;;
20649;SDS011;10484;48.736;9.332;2022-12-18T03:57:19;50.33;;;19.20;;
20649;SDS011;10484;48.736;9.332;2022-12-18T03:59:49;43.60;;;17.98;;
20649;SDS011;10484;48.736;9.332;2022-12-18T04:02:28;39.70;;;20.85;;
20649;SDS011;10484;48.736;9.332;2022-12-18T04:04:56;57.13;;;20.77;;
20649;SDS011;10484;48.736;9.332;2022-12-18T04:07:25;46.20;;;20.25;;
20649;SDS011;10484;48.736;9.332;2022-12-18T04:09:52;36.00;;;17.80;;
20649;SDS011;10484;48.736;9.332;2022-12-18T04:12:20;35.13;;;18.05;;
20649;SDS011;10484;48.736;9.332;2022-12-18T04:14:48;40.28;;;19.58;;
20649;SDS011;10484;48.736;9.332;2022-12-18T04:17:14;34.87;;;17.80;;
20649;SDS011;10484;48.736;9.332;2022-12-18T04:19:39;33.63;;;16.27;;
20649;SDS011;10484;48.736;9.332;2022-12-18T04:22:05;30.90;;;14.27;;
20649;SDS011;10484;48.736;9.332;2022-12-18T04:24:31;36.90;;;17.03;;
20649;SDS011;10484;48.736;9.332;2022-12-18T04:26:56;40.97;;;16.10;;
20649;SDS011;10484;48.736;9.332;2022-12-18T04:29:22;35.53;;;16.47;;
20649;SDS011;10484;48.736;9.332;2022-12-18T04:31:47;36.80;;;16.07;;
20649;SDS011;10484;48.736;9.332;2022-12-18T04:34:13;27.07;;;15.40;;
20649;SDS011;10484;48.736;9.332;2022-12-18T04:36:39;41.67;;;15.90;;
20649;SDS011;10484;48.736;9.332;2022-12-18T04:39:04;33.63;;;16.80;;
20649;SDS011;10484;48.736;9.332;2022-12-18T04:41:30;36.80;;;16.17;;
20649;SDS011;10484;48.736;9.332;2022-12-18T04:43:55;36.43;;;17.00;;
20649;SDS011;10484;48.736;9.332;2022-12-18T04:46:21;31.80;;;17.23;;
20649;SDS011;10484;48.736;9.332;2022-12-18T04:48:47;36.73;;;15.50;;
20649;SDS011;10484;48.736;9.332;2022-12-18T04:51:12;33.87;;;15.73;;
20649;SDS011;10484;48.736;9.332;2022-12-18T04:53:38;35.47;;;16.17;;
20649;SDS011;10484;48.736;9.332;2022-12-18T04:56:04;30.23;;;14.70;;
20649;SDS011;10484;48.736;9.332;2022-12-18T04:58:31;28.65;;;14.80;;
20649;SDS011;10484;48.736;9.332;2022-12-18T05:00:57;31.13;;;14.20;;
20649;SDS011;10484;48.736;9.332;2022-12-18T05:03:23;38.37;;;17.03;;
20649;SDS011;10484;48.736;9.332;2022-12-18T05:05:49;38.93;;;16.43;;
20649;SDS011;10484;48.736;9.332;2022-12-18T05:08:15;33.40;;;16.20;;
20649;SDS011;10484;48.736;9.332;2022-12-18T05:10:41;31.80;;;15.00;;
20649;SDS011;10484;48.736;9.332;2022-12-18T05:13:07;32.43;;;16.20;;
20649;SDS011;10484;48.736;9.332;2022-12-18T05:15:33;38.00;;;16.70;;
20649;SDS011;10484;48.736;9.332;2022-12-18T05:17:59;26.43;;;14.97;;
20649;SDS011;10484;48.736;9.332;2022-12-18T05:20:25;35.65;;;17.92;;
20649;SDS011;10484;48.736;9.332;2022-12-18T05:22:51;31.40;;;14.40;;
20649;SDS011;10484;48.736;9.332;2022-12-18T05:25:18;32.80;;;15.40;;
20649;SDS011;10484;48.736;9.332;2022-12-18T05:27:44;30.77;;;15.57;;
20649;SDS011;10484;48.736;9.332;2022-12-18T05:30:10;31.85;;;14.55;;
20649;SDS011;10484;48.736;9.332;2022-12-18T05:32:36;33.92;;;16.23;;
20649;SDS011;10484;48.736;9.332;2022-12-18T05:35:03;31.42;;;15.45;;
20649;SDS011;10484;48.736;9.332;2022-12-18T05:37:30;38.17;;;16.95;;
20649;SDS011;10484;48.736;9.332;2022-12-18T05:39:56;32.43;;;15.30;;
20649;SDS011;10484;48.736;9.332;2022-12-18T05:42:21;30.67;;;16.60;;
20649;SDS011;10484;48.736;9.332;2022-12-18T05:44:47;35.37;;;15.50;;
20649;SDS011;10484;48.736;9.332;2022-12-18T05:47:13;30.50;;;15.70;;
20649;SDS011;10484;48.736;9.332;2022-12-18T05:49:38;39.00;;;16.50;;
20649;SDS011;10484;48.736;9.332;2022-12-18T05:52:04;30.27;;;15.13;;
20649;SDS011;10484;48.736;9.332;2022-12-18T05:54:30;24.63;;;14.73;;
20649;SDS011;10484;48.736;9.332;2022-12-18T05:56:56;28.60;;;14.13;;
20649;SDS011;10484;48.736;9.332;2022-12-18T05:59:22;33.65;;;15.90;;
20649;SDS011;10484;48.736;9.332;2022-12-18T06:01:47;29.17;;;14.47;;
20649;SDS011;10484;48.736;9.332;2022-12-18T06:04:13;27.17;;;14.83;;
20649;SDS011;10484;48.736;9.332;2022-12-18T06:06:39;27.30;;;14.50;;
20649;SDS011;10484;48.736;9.332;2022-12-18T06:09:04;27.83;;;15.07;;
20649;SDS011;10484;48.736;9.332;2022-12-18T06:11:33;27.10;;;14.43;;
20649;SDS011;10484;48.736;9.332;2022-12-18T06:14:00;32.95;;;16.42;;
20649;SDS011;10484;48.736;9.332;2022-12-18T06:16:27;32.60;;;14.57;;
20649;SDS011;10484;48.736;9.332;2022-12-18T06:18:55;33.47;;;16.02;;
20649;SDS011;10484;48.736;9.332;2022-12-18T06:21:21;29.58;;;15.48;;
20649;SDS011;10484;48.736;9.332;2022-12-18T06:23:47;35.77;;;15.57;;
20649;SDS011;10484;48.736;9.332;2022-12-18T06:26:13;33.67;;;17.67;;
20649;SDS011;10484;48.736;9.332;2022-12-18T06:28:39;29.45;;;15.10;;
20649;SDS011;10484;48.736;9.332;2022-12-18T06:31:05;33.28;;;15.68;;
20649;SDS011;10484;48.736;9.332;2022-12-18T06:33:31;31.48;;;12.77;;
20649;SDS011;10484;48.736;9.332;2022-12-18T06:36:10;38.00;;;17.40;;
20649;SDS011;10484;48.736;9.332;2022-12-18T06:38:39;30.70;;;15.05;;
20649;SDS011;10484;48.736;9.332;2022-12-18T06:41:10;35.15;;;16.15;;
20649;SDS011;10484;48.736;9.332;2022-12-18T06:43:38;32.08;;;15.13;;
20649;SDS011;10484;48.736;9.332;2022-12-18T06:46:04;29.10;;;15.20;;
20649;SDS011;10484;48.736;9.332;2022-12-18T06:48:31;33.97;;;15.45;;
20649;SDS011;10484;48.736;9.332;2022-12-18T06:50:57;33.35;;;15.10;;
20649;SDS011;10484;48.736;9.332;2022-12-18T06:53:23;30.53;;;16.00;;
20649;SDS011;10484;48.736;9.332;2022-12-18T06:55:49;33.53;;;14.90;;
20649;SDS011;10484;48.736;9.332;2022-12-18T06:58:15;34.30;;;14.98;;
20649;SDS011;10484;48.736;9.332;2022-12-18T07:00:40;30.43;;;15.27;;
20649;SDS011;10484;48.736;9.332;2022-12-18T07:03:06;28.90;;;16.07;;
20649;SDS011;10484;48.736;9.332;2022-12-18T07:05:32;30.07;;;15.00;;
20649;SDS011;10484;48.736;9.332;2022-12-18T07:07:58;29.33;;;15.37;;
20649;SDS011;10484;48.736;9.332;2022-12-18T07:10:23;32.05;;;16.33;;
20649;SDS011;10484;48.736;9.332;2022-12-18T07:12:49;29.40;;;15.13;;
20649;SDS011;10484;48.736;9.332;2022-12-18T07:15:15;35.17;;;14.70;;
20649;SDS011;10484;48.736;9.332;2022-12-18T07:17:40;41.33;;;16.10;;
20649;SDS011;10484;48.736;9.332;2022-12-18T07:20:06;32.97;;;16.50;;
20649;SDS011;10484;48.736;9.332;2022-12-18T07:22:32;25.70;;;14.40;;
20649;SDS011;10484;48.736;9.332;2022-12-18T07:24:58;33.13;;;14.93;;
20649;SDS011;10484;48.736;9.332;2022-12-18T07:27:24;35.00;;;16.93;;
20649;SDS011;10484;48.736;9.332;2022-12-18T07:29:49;35.50;;;16.70;;
20649;SDS011;10484;48.736;9.332;2022-12-18T07:32:15;32.60;;;14.60;;
20649;SDS011;10484;48.736;9.332;2022-12-18T07:34:41;31.37;;;16.97;;
20649;SDS011;10484;48.736;9.332;2022-12-18T07:37:06;33.17;;;14.00;;
20649;SDS011;10484;48.736;9.332;2022-12-18T07:39:32;35.50;;;18.80;;
20649;SDS011;10484;48.736;9.332;2022-12-18T07:41:57;36.77;;;18.77;;
20649;SDS011;10484;48.736;9.332;2022-12-18T07:44:41;38.47;;;18.58;;
20649;SDS011;10484;48.736;9.332;2022-12-18T07:47:07;33.00;;;16.87;;
20649;SDS011;10484;48.736;9.332;2022-12-18T07:49:33;26.83;;;14.80;;
20649;SDS011;10484;48.736;9.332;2022-12-18T07:51:58;34.07;;;17.00;;
20649;SDS011;10484;48.736;9.332;2022-12-18T07:54:24;38.90;;;16.83;;
20649;SDS011;10484;48.736;9.332;2022-12-18T07:56:50;32.43;;;17.20;;
20649;SDS011;10484;48.736;9.332;2022-12-18T07:59:16;31.45;;;15.90;;
20649;SDS011;10484;48.736;9.332;2022-12-18T08:01:42;39.27;;;18.33;;
20649;SDS011;10484;48.736;9.332;2022-12-18T08:04:08;34.83;;;16.90;;
20649;SDS011;10484;48.736;9.332;2022-12-18T08:06:33;38.17;;;18.47;;
20649;SDS011;10484;48.736;9.332;2022-12-18T08:08:59;25.57;;;14.73;;
20649;SDS011;10484;48.736;9.332;2022-12-18T08:11:25;40.43;;;16.87;;
20649;SDS011;10484;48.736;9.332;2022-12-18T08:13:52;33.63;;;16.40;;
20649;SDS011;10484;48.736;9.332;2022-12-18T08:16:18;42.65;;;17.50;;
20649;SDS011;10484;48.736;9.332;2022-12-18T08:18:44;36.45;;;17.35;;
20649;SDS011;10484;48.736;9.332;2022-12-18T08:21:17;35.53;;;16.37;;
20649;SDS011;10484;48.736;9.332;2022-12-18T08:23:46;35.15;;;17.75;;
20649;SDS011;10484;48.736;9.332;2022-12-18T08:26:11;35.37;;;17.90;;
20649;SDS011;10484;48.736;9.332;2022-12-18T08:28:37;37.20;;;16.83;;
20649;SDS011;10484;48.736;9.332;2022-12-18T08:31:03;45.85;;;20.20;;
20649;SDS011;10484;48.736;9.332;2022-12-18T08:33:29;35.83;;;18.60;;
20649;SDS011;10484;48.736;9.332;2022-12-18T08:35:55;31.10;;;18.30;;
20649;SDS011;10484;48.736;9.332;2022-12-18T08:38:20;38.87;;;18.63;;
20649;SDS011;10484;48.736;9.332;2022-12-18T08:40:46;37.90;;;18.50;;
20649;SDS011;10484;48.736;9.332;2022-12-18T08:43:11;39.40;;;19.53;;
20649;SDS011;10484;48.736;9.332;2022-12-18T08:45:55;42.58;;;19.00;;
20649;SDS011;10484;48.736;9.332;2022-12-18T08:48:21;47.47;;;20.53;;
20649;SDS011;10484;48.736;9.332;2022-12-18T08:50:56;36.30;;;19.00;;
20649;SDS011;10484;48.736;9.332;2022-12-18T08:53:24;45.67;;;19.55;;
20649;SDS011;10484;48.736;9.332;2022-12-18T08:55:50;36.28;;;18.15;;
20649;SDS011;10484;48.736;9.332;2022-12-18T08:58:15;36.23;;;17.53;;
20649;SDS011;10484;48.736;9.332;2022-12-18T09:00:41;40.00;;;19.40;;
20649;SDS011;10484;48.736;9.332;2022-12-18T09:03:11;31.60;;;17.20;;
20649;SDS011;10484;48.736;9.332;2022-12-18T09:05:38;39.58;;;18.90;;
20649;SDS011;10484;48.736;9.332;2022-12-18T09:08:03;40.47;;;19.20;;
20649;SDS011;10484;48.736;9.332;2022-12-18T09:10:29;36.70;;;17.40;;
20649;SDS011;10484;48.736;9.332;2022-12-18T09:12:55;40.00;;;17.97;;
20649;SDS011;10484;48.736;9.332;2022-12-18T09:15:21;40.90;;;18.90;;
20649;SDS011;10484;48.736;9.332;2022-12-18T09:17:47;35.60;;;17.83;;
20649;SDS011;10484;48.736;9.332;2022-12-18T09:20:13;31.83;;;19.00;;
20649;SDS011;10484;48.736;9.332;2022-12-18T09:22:38;40.30;;;17.40;;
20649;SDS011;10484;48.736;9.332;2022-12-18T09:25:04;31.93;;;14.23;;
20649;SDS011;10484;48.736;9.332;2022-12-18T09:27:32;33.38;;;19.27;;
20649;SDS011;10484;48.736;9.332;2022-12-18T09:29:59;42.85;;;18.58;;
20649;SDS011;10484;48.736;9.332;2022-12-18T09:32:24;46.47;;;21.00;;
20649;SDS011;10484;48.736;9.332;2022-12-18T09:34:56;32.67;;;16.43;;
20649;SDS011;10484;48.736;9.332;2022-12-18T09:37:24;39.00;;;17.55;;
20649;SDS011;10484;48.736;9.332;2022-12-18T09:39:50;34.60;;;17.43;;
20649;SDS011;10484;48.736;9.332;2022-12-18T09:42:24;30.73;;;15.50;;
20649;SDS011;10484;48.736;9.332;2022-12-18T09:44:51;36.80;;;15.90;;
20649;SDS011;10484;48.736;9.332;2022-12-18T09:47:23;33.55;;;14.98;;
20649;SDS011;10484;48.736;9.332;2022-12-18T09:49:55;24.80;;;11.05;;
20649;SDS011;10484;48.736;9.332;2022-12-18T09:52:28;29.23;;;15.18;;
20649;SDS011;10484;48.736;9.332;2022-12-18T09:55:05;30.67;;;14.98;;
20649;SDS011;10484;48.736;9.332;2022-12-18T10:00:41;33.60;;;14.48;;
20649;SDS011;10484;48.736;9.332;2022-12-18T10:03:10;37.07;;;17.57;;
20649;SDS011;10484;48.736;9.332;2022-12-18T10:10:50;30.88;;;12.63;;
20649;SDS011;10484;48.736;9.332;2022-12-18T10:13:39;20.25;;;10.88;;
20649;SDS011;10484;48.736;9.332;2022-12-18T10:16:09;28.48;;;11.27;;
20649;SDS011;10484;48.736;9.332;2022-12-18T10:19:46;33.15;;;12.90;;
20649;SDS011;10484;48.736;9.332;2022-12-18T10:21:54;24.38;;;14.23;;
20649;SDS011;10484;48.736;9.332;2022-12-18T10:25:06;29.15;;;14.18;;
20649;SDS011;10484;48.736;9.332;2022-12-18T10:27:44;22.30;;;10.85;;
20649;SDS011;10484;48.736;9.332;2022-12-18T10:30:20;20.50;;;11.17;;
20649;SDS011;10484;48.736;9.332;2022-12-18T10:32:47;28.48;;;14.57;;
20649;SDS011;10484;48.736;9.332;2022-12-18T10:35:23;26.00;;;13.07;;
20649;SDS011;10484;48.736;9.332;2022-12-18T10:38:05;34.97;;;15.25;;
20649;SDS011;10484;48.736;9.332;2022-12-18T10:40:32;24.85;;;11.73;;
20649;SDS011;10484;48.736;9.332;2022-12-18T10:43:14;33.03;;;14.88;;
20649;SDS011;10484;48.736;9.332;2022-12-18T10:45:44;38.72;;;16.20;;
20649;SDS011;10484;48.736;9.332;2022-12-18T10:48:47;28.63;;;13.98;;
20649;SDS011;10484;48.736;9.332;2022-12-18T10:51:31;25.60;;;14.40;;
20649;SDS011;10484;48.736;9.332;2022-12-18T10:53:59;32.85;;;15.65;;
20649;SDS011;10484;48.736;9.332;2022-12-18T10:56:43;32.97;;;14.68;;
20649;SDS011;10484;48.736;9.332;2022-12-18T10:59:11;37.75;;;15.35;;
20649;SDS011;10484;48.736;9.332;2022-12-18T11:04:16;37.85;;;15.00;;
20649;SDS011;10484;48.736;9.332;2022-12-18T11:09:19;32.33;;;14.70;;
20649;SDS011;10484;48.736;9.332;2022-12-18T11:11:50;38.28;;;13.13;;
20649;SDS011;10484;48.736;9.332;2022-12-18T11:14:21;48.78;;;20.52;;
20649;SDS011;10484;48.736;9.332;2022-12-18T11:16:52;39.35;;;17.35;;
20649;SDS011;10484;48.736;9.332;2022-12-18T11:21:57;35.15;;;17.02;;
20649;SDS011;10484;48.736;9.332;2022-12-18T11:24:31;37.38;;;17.95;;
20649;SDS011;10484;48.736;9.332;2022-12-18T11:27:00;33.50;;;15.35;;
20649;SDS011;10484;48.736;9.332;2022-12-18T11:29:35;34.47;;;16.50;;
20649;SDS011;10484;48.736;9.332;2022-12-18T11:34:59;28.73;;;16.90;;
20649;SDS011;10484;48.736;9.332;2022-12-18T11:37:54;41.25;;;17.23;;
20649;SDS011;10484;48.736;9.332;2022-12-18T11:40:30;42.13;;;18.25;;
20649;SDS011;10484;48.736;9.332;2022-12-18T11:45:36;35.00;;;15.15;;
20649;SDS011;10484;48.736;9.332;2022-12-18T11:48:18;40.28;;;18.40;;
20649;SDS011;10484;48.736;9.332;2022-12-18T11:50:55;44.95;;;18.50;;
20649;SDS011;10484;48.736;9.332;2022-12-18T11:53:24;47.45;;;19.77;;
20649;SDS011;10484;48.736;9.332;2022-12-18T12:06:49;39.75;;;17.35;;
20649;SDS011;10484;48.736;9.332;2022-12-18T12:09:20;43.25;;;20.02;;
20649;SDS011;10484;48.736;9.332;2022-12-18T12:23:15;49.13;;;18.75;;
20649;SDS011;10484;48.736;9.332;2022-12-18T12:39:33;34.72;;;17.15;;
20649;SDS011;10484;48.736;9.332;2022-12-18T12:42:02;46.20;;;19.80;;
20649;SDS011;10484;48.736;9.332;2022-12-18T12:44:53;48.97;;;20.00;;
20649;SDS011;10484;48.736;9.332;2022-12-18T12:47:32;37.20;;;17.83;;
20649;SDS011;10484;48.736;9.332;2022-12-18T12:50:03;32.75;;;16.60;;
20649;SDS011;10484;48.736;9.332;2022-12-18T12:52:40;46.30;;;20.15;;
20649;SDS011;10484;48.736;9.332;2022-12-18T12:55:17;39.35;;;19.08;;
20649;SDS011;10484;48.736;9.332;2022-12-18T12:58:02;42.58;;;18.88;;
20649;SDS011;10484;48.736;9.332;2022-12-18T13:00:35;36.60;;;18.52;;
20649;SDS011;10484;48.736;9.332;2022-12-18T13:06:18;45.83;;;21.67;;
20649;SDS011;10484;48.736;9.332;2022-12-18T13:08:55;43.20;;;18.88;;
20649;SDS011;10484;48.736;9.332;2022-12-18T13:11:34;36.83;;;19.70;;
20649;SDS011;10484;48.736;9.332;2022-12-18T13:14:25;38.25;;;19.48;;
20649;SDS011;10484;48.736;9.332;2022-12-18T13:20:04;39.03;;;18.30;;
20649;SDS011;10484;48.736;9.332;2022-12-18T13:22:43;46.10;;;20.90;;
20649;SDS011;10484;48.736;9.332;2022-12-18T13:28:05;40.58;;;20.02;;
20649;SDS011;10484;48.736;9.332;2022-12-18T13:30:43;40.28;;;19.73;;
20649;SDS011;10484;48.736;9.332;2022-12-18T13:38:20;45.05;;;18.63;;
20649;SDS011;10484;48.736;9.332;2022-12-18T13:40:56;45.50;;;19.10;;
20649;SDS011;10484;48.736;9.332;2022-12-18T13:43:27;56.35;;;21.83;;
20649;SDS011;10484;48.736;9.332;2022-12-18T13:51:28;51.85;;;20.17;;
20649;SDS011;10484;48.736;9.332;2022-12-18T13:54:10;37.70;;;19.33;;
20649;SDS011;10484;48.736;9.332;2022-12-18T13:57:00;43.38;;;20.48;;
20649;SDS011;10484;48.736;9.332;2022-12-18T13:59:32;45.53;;;18.85;;
20649;SDS011;10484;48.736;9.332;2022-12-18T14:02:00;40.42;;;18.95;;
20649;SDS011;10484;48.736;9.332;2022-12-18T14:04:38;45.13;;;20.92;;
20649;SDS011;10484;48.736;9.332;2022-12-18T14:07:04;50.67;;;19.90;;
20649;SDS011;10484;48.736;9.332;2022-12-18T14:09:52;43.10;;;18.52;;
20649;SDS011;10484;48.736;9.332;2022-12-18T14:12:26;38.00;;;17.83;;
20649;SDS011;10484;48.736;9.332;2022-12-18T14:17:54;36.35;;;19.38;;
20649;SDS011;10484;48.736;9.332;2022-12-18T14:20:25;41.63;;;19.58;;
20649;SDS011;10484;48.736;9.332;2022-12-18T14:22:52;37.08;;;20.58;;
20649;SDS011;10484;48.736;9.332;2022-12-18T14:25:20;46.53;;;21.02;;
20649;SDS011;10484;48.736;9.332;2022-12-18T14:30:29;36.90;;;19.80;;
20649;SDS011;10484;48.736;9.332;2022-12-18T14:33:09;43.90;;;21.25;;
20649;SDS011;10484;48.736;9.332;2022-12-18T14:35:51;36.35;;;18.33;;
20649;SDS011;10484;48.736;9.332;2022-12-18T14:43:27;45.78;;;21.60;;
20649;SDS011;10484;48.736;9.332;2022-12-18T14:45:54;37.83;;;20.55;;
20649;SDS011;10484;48.736;9.332;2022-12-18T14:51:01;49.30;;;19.48;;
20649;SDS011;10484;48.736;9.332;2022-12-18T14:53:36;41.53;;;20.65;;
20649;SDS011;10484;48.736;9.332;2022-12-18T14:56:18;37.80;;;19.40;;
20649;SDS011;10484;48.736;9.332;2022-12-18T14:58:50;38.95;;;18.23;;
20649;SDS011;10484;48.736;9.332;2022-12-18T15:01:28;37.92;;;17.40;;
20649;SDS011;10484;48.736;9.332;2022-12-18T15:03:55;39.00;;;17.63;;
20649;SDS011;10484;48.736;9.332;2022-12-18T15:08:52;48.25;;;19.52;;
20649;SDS011;10484;48.736;9.332;2022-12-18T15:11:34;41.50;;;20.30;;
20649;SDS011;10484;48.736;9.332;2022-12-18T15:14:22;39.05;;;16.80;;
20649;SDS011;10484;48.736;9.332;2022-12-18T15:17:05;44.55;;;21.52;;
20649;SDS011;10484;48.736;9.332;2022-12-18T15:19:42;46.97;;;20.77;;
20649;SDS011;10484;48.736;9.332;2022-12-18T15:24:45;61.85;;;23.80;;
20649;SDS011;10484;48.736;9.332;2022-12-18T15:30:20;48.90;;;19.73;;
20649;SDS011;10484;48.736;9.332;2022-12-18T15:32:47;53.38;;;21.30;;
20649;SDS011;10484;48.736;9.332;2022-12-18T15:37:47;41.10;;;20.08;;
20649;SDS011;10484;48.736;9.332;2022-12-18T15:40:15;53.60;;;22.20;;
20649;SDS011;10484;48.736;9.332;2022-12-18T15:42:42;39.13;;;19.00;;
20649;SDS011;10484;48.736;9.332;2022-12-18T15:45:27;41.85;;;18.85;;
20649;SDS011;10484;48.736;9.332;2022-12-18T15:47:53;41.00;;;19.47;;
20649;SDS011;10484;48.736;9.332;2022-12-18T15:50:19;36.23;;;16.83;;
20649;SDS011;10484;48.736;9.332;2022-12-18T15:52:45;42.03;;;18.40;;
20649;SDS011;10484;48.736;9.332;2022-12-18T15:55:15;38.00;;;19.83;;
20649;SDS011;10484;48.736;9.332;2022-12-18T15:58:01;38.75;;;18.45;;
20649;SDS011;10484;48.736;9.332;2022-12-18T16:00:27;38.90;;;17.23;;
20649;SDS011;10484;48.736;9.332;2022-12-18T16:02:53;44.67;;;19.97;;
20649;SDS011;10484;48.736;9.332;2022-12-18T16:05:19;40.97;;;19.00;;
20649;SDS011;10484;48.736;9.332;2022-12-18T16:07:46;38.10;;;19.17;;
20649;SDS011;10484;48.736;9.332;2022-12-18T16:10:12;39.92;;;17.05;;
20649;SDS011;10484;48.736;9.332;2022-12-18T16:12:38;36.00;;;19.60;;
20649;SDS011;10484;48.736;9.332;2022-12-18T16:15:05;36.57;;;17.70;;
20649;SDS011;10484;48.736;9.332;2022-12-18T16:17:31;32.25;;;15.30;;
20649;SDS011;10484;48.736;9.332;2022-12-18T16:19:57;32.40;;;15.17;;
20649;SDS011;10484;48.736;9.332;2022-12-18T16:22:29;35.07;;;16.20;;
20649;SDS011;10484;48.736;9.332;2022-12-18T16:24:55;38.30;;;19.40;;
20649;SDS011;10484;48.736;9.332;2022-12-18T16:27:22;37.90;;;16.13;;
20649;SDS011;10484;48.736;9.332;2022-12-18T16:29:48;38.50;;;18.38;;
20649;SDS011;10484;48.736;9.332;2022-12-18T16:32:18;36.33;;;17.83;;
20649;SDS011;10484;48.736;9.332;2022-12-18T16:34:45;39.33;;;16.40;;